sensor_id;sensor_type;location;lat;lon;timestamp;P1;durP1;ratioP1;P2;durP2;ratioP2
37847;SDS011;23688;33.130;-117.188;2022-12-29T00:01:33;5.45;;;1.40;;
37847;SDS011;23688;33.130;-117.188;2022-12-29T00:04:00;6.10;;;1.13;;
37847;SDS011;23688;33.130;-117.188;2022-12-29T00:06:27;3.03;;;1.00;;
37847;SDS011;23688;33.130;-117.188;2022-12-29T00:08:54;3.00;;;1.15;;
37847;SDS011;23688;33.130;-117.188;2022-12-29T00:11:21;6.25;;;1.83;;
37847;SDS011;23688;33.130;-117.188;2022-12-29T00:16:34;6.43;;;1.60;;
37847;SDS011;23688;33.130;-117.188;2022-12-29T00:19:02;2.72;;;0.75;;
37847;SDS011;23688;33.130;-117.188;2022-12-29T00:21:29;2.53;;;0.85;;
37847;SDS011;23688;33.130;-117.188;2022-12-29T00:24:18;6.97;;;1.27;;
37847;SDS011;23688;33.130;-117.188;2022-12-29T00:29:41;3.80;;;1.15;;
37847;SDS011;23688;33.130;-117.188;2022-12-29T00:32:26;14.95;;;1.67;;
37847;SDS011;23688;33.130;-117.188;2022-12-29T00:35:11;6.90;;;1.00;;
37847;SDS011;23688;33.130;-117.188;2022-12-29T00:37:46;12.20;;;1.30;;
37847;SDS011;23688;33.130;-117.188;2022-12-29T00:40:33;7.90;;;1.10;;
37847;SDS011;23688;33.130;-117.188;2022-12-29T00:43:17;9.15;;;1.60;;
37847;SDS011;23688;33.130;-117.188;2022-12-29T00:46:02;6.97;;;1.50;;
37847;SDS011;23688;33.130;-117.188;2022-12-29T00:48:28;11.50;;;1.70;;
37847;SDS011;23688;33.130;-117.188;2022-12-29T00:51:13;5.97;;;2.15;;
37847;SDS011;23688;33.130;-117.188;2022-12-29T00:53:39;6.63;;;2.20;;
37847;SDS011;23688;33.130;-117.188;2022-12-29T00:56:05;9.50;;;2.30;;
37847;SDS011;23688;33.130;-117.188;2022-12-29T00:58:32;10.52;;;2.33;;
37847;SDS011;23688;33.130;-117.188;2022-12-29T01:01:05;9.65;;;1.80;;
37847;SDS011;23688;33.130;-117.188;2022-12-29T01:03:33;9.75;;;1.70;;
37847;SDS011;23688;33.130;-117.188;2022-12-29T01:06:01;6.85;;;2.25;;
37847;SDS011;23688;33.130;-117.188;2022-12-29T01:08:31;6.22;;;1.65;;
37847;SDS011;23688;33.130;-117.188;2022-12-29T01:10:59;6.40;;;1.88;;
37847;SDS011;23688;33.130;-117.188;2022-12-29T01:13:26;8.50;;;1.52;;
37847;SDS011;23688;33.130;-117.188;2022-12-29T01:15:53;9.25;;;2.13;;
37847;SDS011;23688;33.130;-117.188;2022-12-29T01:18:20;11.63;;;1.55;;
37847;SDS011;23688;33.130;-117.188;2022-12-29T01:20:47;11.25;;;1.98;;
37847;SDS011;23688;33.130;-117.188;2022-12-29T01:23:14;9.18;;;2.00;;
37847;SDS011;23688;33.130;-117.188;2022-12-29T01:25:41;9.82;;;1.75;;
37847;SDS011;23688;33.130;-117.188;2022-12-29T01:28:08;10.82;;;1.70;;
37847;SDS011;23688;33.130;-117.188;2022-12-29T01:30:34;23.70;;;2.28;;
37847;SDS011;23688;33.130;-117.188;2022-12-29T01:33:01;5.78;;;1.17;;
37847;SDS011;23688;33.130;-117.188;2022-12-29T01:35:27;12.60;;;2.00;;
37847;SDS011;23688;33.130;-117.188;2022-12-29T01:37:54;10.40;;;1.80;;
37847;SDS011;23688;33.130;-117.188;2022-12-29T01:40:20;10.68;;;2.13;;
37847;SDS011;23688;33.130;-117.188;2022-12-29T01:42:47;9.93;;;1.80;;
37847;SDS011;23688;33.130;-117.188;2022-12-29T01:45:14;8.57;;;2.30;;
37847;SDS011;23688;33.130;-117.188;2022-12-29T01:47:42;9.53;;;2.07;;
37847;SDS011;23688;33.130;-117.188;2022-12-29T01:50:13;14.48;;;2.55;;
37847;SDS011;23688;33.130;-117.188;2022-12-29T01:53:06;8.63;;;1.60;;
37847;SDS011;23688;33.130;-117.188;2022-12-29T01:55:40;14.85;;;1.95;;
37847;SDS011;23688;33.130;-117.188;2022-12-29T01:58:12;22.15;;;2.53;;
37847;SDS011;23688;33.130;-117.188;2022-12-29T02:00:41;12.43;;;1.98;;
37847;SDS011;23688;33.130;-117.188;2022-12-29T02:03:07;8.18;;;2.50;;
37847;SDS011;23688;33.130;-117.188;2022-12-29T02:08:04;9.77;;;1.80;;
37847;SDS011;23688;33.130;-117.188;2022-12-29T02:10:32;9.25;;;2.10;;
37847;SDS011;23688;33.130;-117.188;2022-12-29T02:13:00;8.73;;;2.17;;
37847;SDS011;23688;33.130;-117.188;2022-12-29T02:15:50;9.77;;;2.92;;
37847;SDS011;23688;33.130;-117.188;2022-12-29T02:18:51;9.68;;;2.50;;
37847;SDS011;23688;33.130;-117.188;2022-12-29T02:40:57;16.20;;;2.47;;
37847;SDS011;23688;33.130;-117.188;2022-12-29T02:51:55;8.95;;;2.00;;
37847;SDS011;23688;33.130;-117.188;2022-12-29T02:54:35;8.73;;;1.80;;
37847;SDS011;23688;33.130;-117.188;2022-12-29T02:57:26;10.18;;;2.55;;
37847;SDS011;23688;33.130;-117.188;2022-12-29T03:00:05;6.43;;;2.03;;
37847;SDS011;23688;33.130;-117.188;2022-12-29T03:05:17;12.60;;;2.42;;
37847;SDS011;23688;33.130;-117.188;2022-12-29T03:07:50;10.32;;;2.55;;
37847;SDS011;23688;33.130;-117.188;2022-12-29T03:16:59;10.27;;;2.30;;
37847;SDS011;23688;33.130;-117.188;2022-12-29T03:19:33;8.43;;;2.28;;
37847;SDS011;23688;33.130;-117.188;2022-12-29T03:22:08;16.83;;;2.88;;
37847;SDS011;23688;33.130;-117.188;2022-12-29T03:27:41;12.35;;;2.40;;
37847;SDS011;23688;33.130;-117.188;2022-12-29T03:30:11;8.10;;;2.38;;
37847;SDS011;23688;33.130;-117.188;2022-12-29T03:32:40;9.05;;;2.42;;
37847;SDS011;23688;33.130;-117.188;2022-12-29T03:35:10;8.52;;;2.40;;
37847;SDS011;23688;33.130;-117.188;2022-12-29T03:37:40;12.95;;;2.78;;
37847;SDS011;23688;33.130;-117.188;2022-12-29T03:40:11;10.32;;;2.85;;
37847;SDS011;23688;33.130;-117.188;2022-12-29T03:42:38;13.02;;;2.25;;
37847;SDS011;23688;33.130;-117.188;2022-12-29T03:45:07;13.65;;;2.30;;
37847;SDS011;23688;33.130;-117.188;2022-12-29T03:47:34;9.75;;;2.08;;
37847;SDS011;23688;33.130;-117.188;2022-12-29T03:50:01;9.25;;;2.35;;
37847;SDS011;23688;33.130;-117.188;2022-12-29T03:52:30;7.30;;;2.05;;
37847;SDS011;23688;33.130;-117.188;2022-12-29T03:54:57;9.90;;;2.47;;
37847;SDS011;23688;33.130;-117.188;2022-12-29T03:57:23;11.52;;;3.35;;
37847;SDS011;23688;33.130;-117.188;2022-12-29T03:59:49;9.63;;;2.13;;
37847;SDS011;23688;33.130;-117.188;2022-12-29T04:02:16;10.30;;;2.55;;
37847;SDS011;23688;33.130;-117.188;2022-12-29T04:04:43;16.52;;;2.45;;
37847;SDS011;23688;33.130;-117.188;2022-12-29T04:07:09;9.85;;;1.92;;
37847;SDS011;23688;33.130;-117.188;2022-12-29T04:09:36;11.18;;;2.47;;
37847;SDS011;23688;33.130;-117.188;2022-12-29T04:12:02;13.73;;;2.53;;
37847;SDS011;23688;33.130;-117.188;2022-12-29T04:14:29;12.30;;;3.53;;
37847;SDS011;23688;33.130;-117.188;2022-12-29T04:16:56;17.38;;;3.92;;
37847;SDS011;23688;33.130;-117.188;2022-12-29T04:19:22;22.10;;;4.18;;
37847;SDS011;23688;33.130;-117.188;2022-12-29T04:21:49;19.42;;;3.85;;
37847;SDS011;23688;33.130;-117.188;2022-12-29T04:24:15;25.75;;;3.45;;
37847;SDS011;23688;33.130;-117.188;2022-12-29T04:26:41;22.85;;;4.22;;
37847;SDS011;23688;33.130;-117.188;2022-12-29T04:29:08;28.05;;;3.95;;
37847;SDS011;23688;33.130;-117.188;2022-12-29T04:31:35;16.90;;;3.60;;
37847;SDS011;23688;33.130;-117.188;2022-12-29T04:34:01;16.10;;;3.42;;
37847;SDS011;23688;33.130;-117.188;2022-12-29T04:36:28;22.77;;;3.63;;
37847;SDS011;23688;33.130;-117.188;2022-12-29T04:38:54;20.00;;;3.70;;
37847;SDS011;23688;33.130;-117.188;2022-12-29T04:41:20;21.40;;;4.07;;
37847;SDS011;23688;33.130;-117.188;2022-12-29T04:43:47;24.33;;;4.38;;
37847;SDS011;23688;33.130;-117.188;2022-12-29T04:46:13;15.15;;;4.82;;
37847;SDS011;23688;33.130;-117.188;2022-12-29T04:48:41;15.70;;;3.22;;
37847;SDS011;23688;33.130;-117.188;2022-12-29T04:51:07;23.35;;;4.22;;
37847;SDS011;23688;33.130;-117.188;2022-12-29T04:53:34;20.65;;;4.18;;
37847;SDS011;23688;33.130;-117.188;2022-12-29T04:56:00;29.17;;;4.45;;
37847;SDS011;23688;33.130;-117.188;2022-12-29T04:58:26;27.85;;;5.95;;
37847;SDS011;23688;33.130;-117.188;2022-12-29T05:00:53;23.77;;;4.05;;
37847;SDS011;23688;33.130;-117.188;2022-12-29T05:03:19;16.02;;;4.05;;
37847;SDS011;23688;33.130;-117.188;2022-12-29T05:05:46;29.55;;;4.72;;
37847;SDS011;23688;33.130;-117.188;2022-12-29T05:08:12;25.17;;;3.55;;
37847;SDS011;23688;33.130;-117.188;2022-12-29T05:10:39;15.20;;;3.58;;
37847;SDS011;23688;33.130;-117.188;2022-12-29T05:13:05;21.92;;;3.08;;
37847;SDS011;23688;33.130;-117.188;2022-12-29T05:15:32;19.38;;;3.92;;
37847;SDS011;23688;33.130;-117.188;2022-12-29T05:17:58;22.50;;;3.55;;
37847;SDS011;23688;33.130;-117.188;2022-12-29T05:20:24;22.15;;;4.25;;
37847;SDS011;23688;33.130;-117.188;2022-12-29T05:22:51;18.45;;;4.88;;
37847;SDS011;23688;33.130;-117.188;2022-12-29T05:25:17;29.85;;;4.63;;
37847;SDS011;23688;33.130;-117.188;2022-12-29T05:27:43;16.70;;;3.47;;
37847;SDS011;23688;33.130;-117.188;2022-12-29T05:30:12;26.98;;;3.88;;
37847;SDS011;23688;33.130;-117.188;2022-12-29T05:32:38;21.90;;;3.50;;
37847;SDS011;23688;33.130;-117.188;2022-12-29T05:35:05;18.67;;;2.97;;
37847;SDS011;23688;33.130;-117.188;2022-12-29T05:37:31;20.55;;;3.25;;
37847;SDS011;23688;33.130;-117.188;2022-12-29T05:39:58;33.17;;;4.05;;
37847;SDS011;23688;33.130;-117.188;2022-12-29T05:42:26;18.02;;;2.67;;
37847;SDS011;23688;33.130;-117.188;2022-12-29T05:44:52;24.48;;;3.72;;
37847;SDS011;23688;33.130;-117.188;2022-12-29T05:47:19;20.23;;;3.05;;
37847;SDS011;23688;33.130;-117.188;2022-12-29T05:49:45;29.70;;;4.57;;
37847;SDS011;23688;33.130;-117.188;2022-12-29T05:52:12;23.50;;;3.63;;
37847;SDS011;23688;33.130;-117.188;2022-12-29T05:54:38;18.10;;;2.97;;
37847;SDS011;23688;33.130;-117.188;2022-12-29T05:57:04;22.67;;;3.30;;
37847;SDS011;23688;33.130;-117.188;2022-12-29T05:59:31;22.58;;;3.28;;
37847;SDS011;23688;33.130;-117.188;2022-12-29T06:01:57;18.50;;;3.72;;
37847;SDS011;23688;33.130;-117.188;2022-12-29T06:04:23;27.48;;;3.70;;
37847;SDS011;23688;33.130;-117.188;2022-12-29T06:06:49;25.20;;;5.13;;
37847;SDS011;23688;33.130;-117.188;2022-12-29T06:09:16;21.58;;;5.45;;
37847;SDS011;23688;33.130;-117.188;2022-12-29T06:11:42;18.77;;;3.92;;
37847;SDS011;23688;33.130;-117.188;2022-12-29T06:14:08;22.25;;;4.03;;
37847;SDS011;23688;33.130;-117.188;2022-12-29T06:16:35;20.80;;;3.95;;
37847;SDS011;23688;33.130;-117.188;2022-12-29T06:19:01;19.20;;;3.75;;
37847;SDS011;23688;33.130;-117.188;2022-12-29T06:21:27;18.23;;;3.67;;
37847;SDS011;23688;33.130;-117.188;2022-12-29T06:23:54;21.55;;;4.65;;
37847;SDS011;23688;33.130;-117.188;2022-12-29T06:26:20;18.80;;;4.00;;
37847;SDS011;23688;33.130;-117.188;2022-12-29T06:28:46;20.42;;;3.63;;
37847;SDS011;23688;33.130;-117.188;2022-12-29T06:31:13;20.65;;;3.63;;
37847;SDS011;23688;33.130;-117.188;2022-12-29T06:33:39;24.05;;;4.90;;
37847;SDS011;23688;33.130;-117.188;2022-12-29T06:38:34;21.67;;;5.32;;
37847;SDS011;23688;33.130;-117.188;2022-12-29T06:41:00;30.80;;;4.75;;
37847;SDS011;23688;33.130;-117.188;2022-12-29T06:43:27;29.77;;;4.97;;
37847;SDS011;23688;33.130;-117.188;2022-12-29T06:45:53;27.20;;;4.38;;
37847;SDS011;23688;33.130;-117.188;2022-12-29T06:48:19;26.63;;;4.38;;
37847;SDS011;23688;33.130;-117.188;2022-12-29T06:50:46;21.20;;;4.78;;
37847;SDS011;23688;33.130;-117.188;2022-12-29T06:53:12;22.67;;;3.83;;
37847;SDS011;23688;33.130;-117.188;2022-12-29T06:55:38;17.00;;;3.28;;
37847;SDS011;23688;33.130;-117.188;2022-12-29T06:58:05;14.63;;;3.42;;
37847;SDS011;23688;33.130;-117.188;2022-12-29T07:00:31;15.57;;;3.45;;
37847;SDS011;23688;33.130;-117.188;2022-12-29T07:02:58;22.30;;;3.92;;
37847;SDS011;23688;33.130;-117.188;2022-12-29T07:05:26;21.50;;;4.20;;
37847;SDS011;23688;33.130;-117.188;2022-12-29T07:07:53;20.20;;;3.95;;
37847;SDS011;23688;33.130;-117.188;2022-12-29T07:10:20;18.60;;;3.33;;
37847;SDS011;23688;33.130;-117.188;2022-12-29T07:12:47;27.02;;;4.53;;
37847;SDS011;23688;33.130;-117.188;2022-12-29T07:15:13;22.70;;;4.53;;
37847;SDS011;23688;33.130;-117.188;2022-12-29T07:17:39;17.77;;;3.83;;
37847;SDS011;23688;33.130;-117.188;2022-12-29T07:20:06;14.00;;;3.35;;
37847;SDS011;23688;33.130;-117.188;2022-12-29T07:22:34;13.18;;;3.80;;
37847;SDS011;23688;33.130;-117.188;2022-12-29T07:25:00;18.00;;;3.08;;
37847;SDS011;23688;33.130;-117.188;2022-12-29T07:27:28;17.98;;;3.67;;
37847;SDS011;23688;33.130;-117.188;2022-12-29T07:29:54;18.70;;;4.07;;
37847;SDS011;23688;33.130;-117.188;2022-12-29T07:32:20;20.27;;;4.13;;
37847;SDS011;23688;33.130;-117.188;2022-12-29T07:34:47;20.35;;;4.05;;
37847;SDS011;23688;33.130;-117.188;2022-12-29T07:37:16;16.70;;;3.30;;
37847;SDS011;23688;33.130;-117.188;2022-12-29T07:39:43;20.58;;;4.50;;
37847;SDS011;23688;33.130;-117.188;2022-12-29T07:42:09;19.70;;;4.43;;
37847;SDS011;23688;33.130;-117.188;2022-12-29T07:44:35;24.35;;;4.28;;
37847;SDS011;23688;33.130;-117.188;2022-12-29T07:47:02;17.27;;;3.83;;
37847;SDS011;23688;33.130;-117.188;2022-12-29T07:49:28;27.88;;;4.13;;
37847;SDS011;23688;33.130;-117.188;2022-12-29T07:51:54;22.83;;;3.60;;
37847;SDS011;23688;33.130;-117.188;2022-12-29T07:54:20;20.17;;;3.78;;
37847;SDS011;23688;33.130;-117.188;2022-12-29T07:56:47;26.45;;;4.38;;
37847;SDS011;23688;33.130;-117.188;2022-12-29T07:59:14;15.52;;;3.60;;
37847;SDS011;23688;33.130;-117.188;2022-12-29T08:01:40;22.13;;;3.85;;
37847;SDS011;23688;33.130;-117.188;2022-12-29T08:04:06;10.68;;;3.03;;
37847;SDS011;23688;33.130;-117.188;2022-12-29T08:06:33;18.60;;;4.07;;
37847;SDS011;23688;33.130;-117.188;2022-12-29T08:08:59;18.50;;;3.28;;
37847;SDS011;23688;33.130;-117.188;2022-12-29T08:11:26;17.80;;;3.55;;
37847;SDS011;23688;33.130;-117.188;2022-12-29T08:13:53;13.82;;;3.78;;
37847;SDS011;23688;33.130;-117.188;2022-12-29T08:16:19;16.08;;;3.70;;
37847;SDS011;23688;33.130;-117.188;2022-12-29T08:18:45;14.13;;;3.45;;
37847;SDS011;23688;33.130;-117.188;2022-12-29T08:21:12;13.27;;;3.10;;
37847;SDS011;23688;33.130;-117.188;2022-12-29T08:23:38;10.73;;;2.90;;
37847;SDS011;23688;33.130;-117.188;2022-12-29T08:26:05;16.27;;;3.38;;
37847;SDS011;23688;33.130;-117.188;2022-12-29T08:28:32;20.42;;;3.65;;
37847;SDS011;23688;33.130;-117.188;2022-12-29T08:31:00;15.95;;;2.97;;
37847;SDS011;23688;33.130;-117.188;2022-12-29T08:33:27;15.80;;;4.05;;
37847;SDS011;23688;33.130;-117.188;2022-12-29T08:36:04;21.13;;;4.18;;
37847;SDS011;23688;33.130;-117.188;2022-12-29T08:38:32;23.65;;;4.45;;
37847;SDS011;23688;33.130;-117.188;2022-12-29T08:40:58;19.55;;;4.68;;
37847;SDS011;23688;33.130;-117.188;2022-12-29T08:43:26;16.73;;;4.50;;
37847;SDS011;23688;33.130;-117.188;2022-12-29T08:45:53;19.77;;;4.38;;
37847;SDS011;23688;33.130;-117.188;2022-12-29T08:48:20;12.35;;;4.50;;
37847;SDS011;23688;33.130;-117.188;2022-12-29T08:50:47;11.02;;;4.25;;
37847;SDS011;23688;33.130;-117.188;2022-12-29T08:53:15;17.83;;;4.38;;
37847;SDS011;23688;33.130;-117.188;2022-12-29T08:55:44;19.70;;;5.10;;
37847;SDS011;23688;33.130;-117.188;2022-12-29T08:58:11;19.45;;;4.53;;
37847;SDS011;23688;33.130;-117.188;2022-12-29T09:00:40;19.73;;;4.80;;
37847;SDS011;23688;33.130;-117.188;2022-12-29T09:03:07;18.48;;;4.63;;
37847;SDS011;23688;33.130;-117.188;2022-12-29T09:05:33;16.42;;;4.10;;
37847;SDS011;23688;33.130;-117.188;2022-12-29T09:08:00;16.15;;;4.78;;
37847;SDS011;23688;33.130;-117.188;2022-12-29T09:10:26;18.17;;;4.07;;
37847;SDS011;23688;33.130;-117.188;2022-12-29T09:12:52;16.23;;;4.07;;
37847;SDS011;23688;33.130;-117.188;2022-12-29T09:15:18;10.60;;;3.97;;
37847;SDS011;23688;33.130;-117.188;2022-12-29T09:17:45;14.43;;;4.03;;
37847;SDS011;23688;33.130;-117.188;2022-12-29T09:20:12;11.77;;;4.15;;
37847;SDS011;23688;33.130;-117.188;2022-12-29T09:22:40;13.95;;;3.95;;
37847;SDS011;23688;33.130;-117.188;2022-12-29T09:25:07;14.38;;;4.35;;
37847;SDS011;23688;33.130;-117.188;2022-12-29T09:27:34;10.23;;;4.32;;
37847;SDS011;23688;33.130;-117.188;2022-12-29T09:30:02;12.27;;;5.07;;
37847;SDS011;23688;33.130;-117.188;2022-12-29T09:32:31;12.70;;;3.80;;
37847;SDS011;23688;33.130;-117.188;2022-12-29T09:34:57;16.67;;;4.82;;
37847;SDS011;23688;33.130;-117.188;2022-12-29T09:37:24;19.08;;;5.45;;
37847;SDS011;23688;33.130;-117.188;2022-12-29T09:39:50;12.18;;;3.90;;
37847;SDS011;23688;33.130;-117.188;2022-12-29T09:47:41;17.58;;;4.93;;
37847;SDS011;23688;33.130;-117.188;2022-12-29T09:50:20;15.15;;;4.68;;
37847;SDS011;23688;33.130;-117.188;2022-12-29T09:55:33;23.25;;;4.88;;
37847;SDS011;23688;33.130;-117.188;2022-12-29T09:58:05;19.48;;;5.38;;
37847;SDS011;23688;33.130;-117.188;2022-12-29T10:01:01;19.77;;;6.00;;
37847;SDS011;23688;33.130;-117.188;2022-12-29T10:06:22;20.70;;;5.53;;
37847;SDS011;23688;33.130;-117.188;2022-12-29T10:12:17;22.63;;;6.07;;
37847;SDS011;23688;33.130;-117.188;2022-12-29T10:25:49;18.13;;;5.72;;
37847;SDS011;23688;33.130;-117.188;2022-12-29T10:28:30;19.90;;;6.88;;
37847;SDS011;23688;33.130;-117.188;2022-12-29T10:31:34;17.75;;;5.63;;
37847;SDS011;23688;33.130;-117.188;2022-12-29T10:36:58;17.95;;;5.47;;
37847;SDS011;23688;33.130;-117.188;2022-12-29T10:39:33;11.90;;;5.00;;
37847;SDS011;23688;33.130;-117.188;2022-12-29T10:42:14;13.88;;;5.30;;
37847;SDS011;23688;33.130;-117.188;2022-12-29T10:44:47;19.85;;;5.40;;
37847;SDS011;23688;33.130;-117.188;2022-12-29T10:47:14;17.48;;;6.20;;
37847;SDS011;23688;33.130;-117.188;2022-12-29T10:49:45;15.15;;;5.47;;
37847;SDS011;23688;33.130;-117.188;2022-12-29T10:52:13;17.27;;;4.65;;
37847;SDS011;23688;33.130;-117.188;2022-12-29T10:54:45;16.80;;;4.35;;
37847;SDS011;23688;33.130;-117.188;2022-12-29T10:57:28;18.45;;;5.82;;
37847;SDS011;23688;33.130;-117.188;2022-12-29T11:00:09;19.73;;;4.82;;
37847;SDS011;23688;33.130;-117.188;2022-12-29T11:08:09;16.42;;;6.20;;
37847;SDS011;23688;33.130;-117.188;2022-12-29T11:10:40;25.50;;;6.30;;
37847;SDS011;23688;33.130;-117.188;2022-12-29T11:13:27;17.55;;;5.90;;
37847;SDS011;23688;33.130;-117.188;2022-12-29T11:15:55;12.43;;;5.82;;
37847;SDS011;23688;33.130;-117.188;2022-12-29T11:18:23;21.08;;;5.60;;
37847;SDS011;23688;33.130;-117.188;2022-12-29T11:20:59;15.88;;;5.82;;
37847;SDS011;23688;33.130;-117.188;2022-12-29T11:23:37;15.13;;;5.47;;
37847;SDS011;23688;33.130;-117.188;2022-12-29T11:28:44;22.20;;;6.40;;
37847;SDS011;23688;33.130;-117.188;2022-12-29T11:31:15;15.98;;;5.80;;
37847;SDS011;23688;33.130;-117.188;2022-12-29T11:33:43;14.85;;;6.13;;
37847;SDS011;23688;33.130;-117.188;2022-12-29T11:36:16;18.45;;;6.25;;
37847;SDS011;23688;33.130;-117.188;2022-12-29T11:38:52;15.27;;;6.30;;
37847;SDS011;23688;33.130;-117.188;2022-12-29T11:41:28;20.65;;;5.50;;
37847;SDS011;23688;33.130;-117.188;2022-12-29T11:43:57;18.02;;;5.60;;
37847;SDS011;23688;33.130;-117.188;2022-12-29T11:46:29;13.98;;;5.20;;
37847;SDS011;23688;33.130;-117.188;2022-12-29T11:48:59;22.63;;;5.90;;
37847;SDS011;23688;33.130;-117.188;2022-12-29T11:51:28;18.40;;;6.70;;
37847;SDS011;23688;33.130;-117.188;2022-12-29T11:53:59;14.23;;;5.43;;
37847;SDS011;23688;33.130;-117.188;2022-12-29T11:56:36;17.67;;;5.82;;
37847;SDS011;23688;33.130;-117.188;2022-12-29T12:01:57;20.60;;;4.82;;
37847;SDS011;23688;33.130;-117.188;2022-12-29T12:04:26;14.77;;;5.43;;
37847;SDS011;23688;33.130;-117.188;2022-12-29T12:07:04;14.73;;;4.38;;
37847;SDS011;23688;33.130;-117.188;2022-12-29T12:12:36;19.30;;;6.60;;
37847;SDS011;23688;33.130;-117.188;2022-12-29T12:15:36;17.58;;;5.97;;
37847;SDS011;23688;33.130;-117.188;2022-12-29T12:20:45;12.85;;;6.07;;
37847;SDS011;23688;33.130;-117.188;2022-12-29T12:26:42;13.77;;;6.28;;
37847;SDS011;23688;33.130;-117.188;2022-12-29T12:29:20;20.08;;;6.40;;
37847;SDS011;23688;33.130;-117.188;2022-12-29T12:31:54;18.67;;;6.03;;
37847;SDS011;23688;33.130;-117.188;2022-12-29T12:39:59;20.35;;;6.82;;
37847;SDS011;23688;33.130;-117.188;2022-12-29T12:51:14;17.55;;;6.40;;
37847;SDS011;23688;33.130;-117.188;2022-12-29T12:54:14;18.08;;;6.07;;
37847;SDS011;23688;33.130;-117.188;2022-12-29T12:56:51;16.83;;;5.75;;
37847;SDS011;23688;33.130;-117.188;2022-12-29T13:15:42;16.75;;;5.72;;
37847;SDS011;23688;33.130;-117.188;2022-12-29T13:18:32;17.95;;;5.82;;
37847;SDS011;23688;33.130;-117.188;2022-12-29T13:21:15;10.13;;;6.28;;
37847;SDS011;23688;33.130;-117.188;2022-12-29T13:26:51;21.38;;;6.40;;
37847;SDS011;23688;33.130;-117.188;2022-12-29T13:29:35;18.02;;;6.40;;
37847;SDS011;23688;33.130;-117.188;2022-12-29T13:32:15;13.35;;;4.60;;
37847;SDS011;23688;33.130;-117.188;2022-12-29T13:34:57;21.55;;;5.82;;
37847;SDS011;23688;33.130;-117.188;2022-12-29T13:37:35;26.98;;;5.97;;
37847;SDS011;23688;33.130;-117.188;2022-12-29T13:40:13;20.88;;;5.28;;
37847;SDS011;23688;33.130;-117.188;2022-12-29T13:42:43;23.65;;;5.72;;
37847;SDS011;23688;33.130;-117.188;2022-12-29T13:45:12;19.75;;;5.07;;
37847;SDS011;23688;33.130;-117.188;2022-12-29T13:47:53;18.17;;;5.63;;
37847;SDS011;23688;33.130;-117.188;2022-12-29T13:50:25;31.48;;;6.13;;
37847;SDS011;23688;33.130;-117.188;2022-12-29T14:01:08;30.63;;;6.13;;
37847;SDS011;23688;33.130;-117.188;2022-12-29T14:03:45;19.17;;;6.10;;
37847;SDS011;23688;33.130;-117.188;2022-12-29T14:06:27;20.92;;;6.75;;
37847;SDS011;23688;33.130;-117.188;2022-12-29T14:09:00;21.67;;;7.03;;
37847;SDS011;23688;33.130;-117.188;2022-12-29T14:11:33;25.55;;;6.28;;
37847;SDS011;23688;33.130;-117.188;2022-12-29T14:14:18;24.15;;;6.47;;
37847;SDS011;23688;33.130;-117.188;2022-12-29T14:16:54;17.20;;;5.97;;
37847;SDS011;23688;33.130;-117.188;2022-12-29T14:19:41;18.70;;;6.20;;
37847;SDS011;23688;33.130;-117.188;2022-12-29T14:22:09;24.02;;;7.07;;
37847;SDS011;23688;33.130;-117.188;2022-12-29T14:34:58;37.70;;;4.57;;
37847;SDS011;23688;33.130;-117.188;2022-12-29T14:37:29;23.83;;;4.68;;
37847;SDS011;23688;33.130;-117.188;2022-12-29T14:42:32;22.60;;;4.47;;
37847;SDS011;23688;33.130;-117.188;2022-12-29T14:45:02;21.05;;;4.13;;
37847;SDS011;23688;33.130;-117.188;2022-12-29T14:47:37;18.67;;;4.90;;
37847;SDS011;23688;33.130;-117.188;2022-12-29T14:50:38;28.60;;;4.85;;
37847;SDS011;23688;33.130;-117.188;2022-12-29T14:53:50;21.85;;;4.70;;
37847;SDS011;23688;33.130;-117.188;2022-12-29T14:56:08;29.02;;;4.82;;
37847;SDS011;23688;33.130;-117.188;2022-12-29T15:01:32;32.35;;;4.50;;
37847;SDS011;23688;33.130;-117.188;2022-12-29T15:04:19;30.53;;;4.67;;
37847;SDS011;23688;33.130;-117.188;2022-12-29T15:06:57;16.67;;;4.13;;
37847;SDS011;23688;33.130;-117.188;2022-12-29T15:12:15;22.23;;;3.85;;
37847;SDS011;23688;33.130;-117.188;2022-12-29T15:14:52;22.85;;;4.25;;
37847;SDS011;23688;33.130;-117.188;2022-12-29T15:17:29;21.67;;;4.18;;
37847;SDS011;23688;33.130;-117.188;2022-12-29T15:23:03;38.30;;;5.40;;
37847;SDS011;23688;33.130;-117.188;2022-12-29T15:25:48;21.50;;;4.63;;
37847;SDS011;23688;33.130;-117.188;2022-12-29T15:28:20;29.23;;;5.07;;
37847;SDS011;23688;33.130;-117.188;2022-12-29T15:30:52;21.48;;;4.70;;
37847;SDS011;23688;33.130;-117.188;2022-12-29T15:33:28;23.20;;;4.47;;
37847;SDS011;23688;33.130;-117.188;2022-12-29T15:35:56;23.00;;;4.68;;
37847;SDS011;23688;33.130;-117.188;2022-12-29T15:38:29;22.50;;;4.78;;
37847;SDS011;23688;33.130;-117.188;2022-12-29T15:44:26;23.80;;;3.45;;
37847;SDS011;23688;33.130;-117.188;2022-12-29T15:47:04;26.77;;;4.85;;
37847;SDS011;23688;33.130;-117.188;2022-12-29T15:49:32;33.25;;;4.88;;
37847;SDS011;23688;33.130;-117.188;2022-12-29T15:51:59;28.05;;;4.68;;
37847;SDS011;23688;33.130;-117.188;2022-12-29T15:54:26;17.88;;;3.72;;
37847;SDS011;23688;33.130;-117.188;2022-12-29T15:56:56;28.02;;;3.78;;
37847;SDS011;23688;33.130;-117.188;2022-12-29T15:59:24;21.92;;;4.57;;
37847;SDS011;23688;33.130;-117.188;2022-12-29T16:01:55;29.00;;;4.45;;
37847;SDS011;23688;33.130;-117.188;2022-12-29T16:04:23;31.77;;;3.77;;
37847;SDS011;23688;33.130;-117.188;2022-12-29T16:06:59;19.00;;;3.97;;
37847;SDS011;23688;33.130;-117.188;2022-12-29T16:09:34;20.23;;;4.60;;
37847;SDS011;23688;33.130;-117.188;2022-12-29T16:12:17;24.05;;;4.75;;
37847;SDS011;23688;33.130;-117.188;2022-12-29T16:14:53;27.33;;;4.00;;
37847;SDS011;23688;33.130;-117.188;2022-12-29T16:17:24;21.38;;;3.60;;
37847;SDS011;23688;33.130;-117.188;2022-12-29T16:19:59;24.38;;;3.33;;
37847;SDS011;23688;33.130;-117.188;2022-12-29T16:22:29;21.77;;;4.18;;
37847;SDS011;23688;33.130;-117.188;2022-12-29T16:25:38;20.65;;;3.60;;
37847;SDS011;23688;33.130;-117.188;2022-12-29T16:27:50;26.30;;;4.20;;
37847;SDS011;23688;33.130;-117.188;2022-12-29T16:32:53;27.77;;;4.32;;
37847;SDS011;23688;33.130;-117.188;2022-12-29T16:38:12;22.05;;;3.72;;
37847;SDS011;23688;33.130;-117.188;2022-12-29T16:40:50;17.30;;;3.53;;
37847;SDS011;23688;33.130;-117.188;2022-12-29T16:43:30;24.05;;;4.03;;
37847;SDS011;23688;33.130;-117.188;2022-12-29T16:48:26;21.70;;;3.15;;
37847;SDS011;23688;33.130;-117.188;2022-12-29T16:51:06;25.52;;;3.75;;
37847;SDS011;23688;33.130;-117.188;2022-12-29T16:53:40;24.77;;;5.15;;
37847;SDS011;23688;33.130;-117.188;2022-12-29T16:56:17;25.48;;;3.40;;
37847;SDS011;23688;33.130;-117.188;2022-12-29T16:58:49;27.00;;;3.70;;
37847;SDS011;23688;33.130;-117.188;2022-12-29T17:01:19;24.10;;;4.13;;
37847;SDS011;23688;33.130;-117.188;2022-12-29T17:03:51;29.83;;;5.00;;
37847;SDS011;23688;33.130;-117.188;2022-12-29T17:06:21;20.08;;;3.42;;
37847;SDS011;23688;33.130;-117.188;2022-12-29T17:08:48;18.50;;;3.50;;
37847;SDS011;23688;33.130;-117.188;2022-12-29T17:11:20;20.03;;;3.80;;
37847;SDS011;23688;33.130;-117.188;2022-12-29T17:16:48;20.48;;;6.05;;